createdAt,value
2022-08-26T00:00:48.372Z,22.16
2022-08-26T00:03:16.093Z,22.15
2022-08-26T00:05:44.756Z,22.14
2022-08-26T00:08:15.263Z,22.13
2022-08-26T00:10:43.763Z,22.10
2022-08-26T00:13:11.137Z,22.07
2022-08-26T00:15:38.481Z,22.05
2022-08-26T00:18:05.593Z,22.05
2022-08-26T00:20:48.466Z,22.04
2022-08-26T00:23:15.086Z,22.06
2022-08-26T00:25:44.112Z,22.08
2022-08-26T00:28:11.064Z,22.10
2022-08-26T00:30:38.267Z,22.10
2022-08-26T00:33:05.009Z,22.09
2022-08-26T00:35:33.619Z,22.10
2022-08-26T00:38:01.746Z,22.09
2022-08-26T00:40:31.212Z,22.08
2022-08-26T00:42:59.973Z,22.08
2022-08-26T00:45:27.223Z,22.05
2022-08-26T00:47:57.963Z,22.04
2022-08-26T00:50:29.326Z,22.02
2022-08-26T00:52:58.163Z,22.00
2022-08-26T00:55:37.872Z,21.99
2022-08-26T00:58:08.240Z,21.94
2022-08-26T01:00:34.907Z,21.92
2022-08-26T01:03:03.283Z,21.93
2022-08-26T01:05:31.915Z,21.93
2022-08-26T01:07:58.494Z,21.92
2022-08-26T01:10:29.282Z,21.91
2022-08-26T01:13:00.187Z,21.88
2022-08-26T01:15:33.962Z,21.82
2022-08-26T01:18:00.906Z,21.77
2022-08-26T01:20:36.292Z,21.73
2022-08-26T01:23:06.893Z,21.72
2022-08-26T01:25:39.198Z,21.70
2022-08-26T01:28:10.622Z,21.69
2022-08-26T01:30:38.720Z,21.67
2022-08-26T01:33:10.299Z,21.64
2022-08-26T01:35:38.334Z,21.59
2022-08-26T01:38:06.442Z,21.55
2022-08-26T01:40:37.134Z,21.55
2022-08-26T01:43:07.104Z,21.53
2022-08-26T01:45:36.680Z,21.50
2022-08-26T01:48:08.338Z,21.48
2022-08-26T01:50:38.105Z,21.45
2022-08-26T01:53:09.284Z,21.44
2022-08-26T01:55:39.186Z,21.41
2022-08-26T01:58:14.971Z,21.40
2022-08-26T02:00:41.742Z,21.39
2022-08-26T02:03:11.315Z,21.38
2022-08-26T02:05:39.406Z,21.39
2022-08-26T02:08:08.039Z,21.39
2022-08-26T02:10:34.715Z,21.41
2022-08-26T02:13:02.724Z,21.44
2022-08-26T02:15:29.909Z,21.44
2022-08-26T02:17:57.460Z,21.44
2022-08-26T02:20:25.197Z,21.43
2022-08-26T02:22:53.356Z,21.41
2022-08-26T02:25:25.390Z,21.39
2022-08-26T02:27:52.473Z,21.36
2022-08-26T02:30:21.327Z,21.35
2022-08-26T02:32:49.584Z,21.37
2022-08-26T02:35:19.996Z,21.37
2022-08-26T02:37:47.450Z,21.38
2022-08-26T02:40:17.990Z,21.39
2022-08-26T02:42:46.384Z,21.39
2022-08-26T02:45:13.125Z,21.39
2022-08-26T02:47:43.366Z,21.37
2022-08-26T02:50:10.032Z,21.37
2022-08-26T02:52:36.988Z,21.37
2022-08-26T02:55:05.490Z,21.37
2022-08-26T02:57:32.118Z,21.37
2022-08-26T03:00:01.466Z,21.37
2022-08-26T03:02:28.553Z,21.36
2022-08-26T03:04:57.700Z,21.35
2022-08-26T03:07:28.315Z,21.36
2022-08-26T03:09:54.963Z,21.34
2022-08-26T03:12:21.522Z,21.34
2022-08-26T03:14:48.217Z,21.33
2022-08-26T03:17:16.203Z,21.34
2022-08-26T03:19:42.926Z,21.34
2022-08-26T03:22:09.530Z,21.33
2022-08-26T03:24:37.879Z,21.31
2022-08-26T03:27:07.412Z,21.31
2022-08-26T03:29:34.098Z,21.29
2022-08-26T03:32:00.663Z,21.27
2022-08-26T03:34:28.634Z,21.27
2022-08-26T03:36:55.278Z,21.27
2022-08-26T03:39:21.847Z,21.25
2022-08-26T03:41:48.446Z,21.24
2022-08-26T03:44:15.157Z,21.23
2022-08-26T03:46:41.863Z,21.22
2022-08-26T03:49:10.629Z,21.19
2022-08-26T03:51:39.042Z,21.18
2022-08-26T03:54:08.324Z,21.17
2022-08-26T03:56:35.942Z,21.18
2022-08-26T03:59:02.852Z,21.17
2022-08-26T04:01:30.166Z,21.16
2022-08-26T04:03:59.969Z,21.18
2022-08-26T04:06:29.241Z,21.18
2022-08-26T04:08:59.166Z,21.18
2022-08-26T04:11:27.890Z,21.17
2022-08-26T04:13:57.824Z,21.18
2022-08-26T04:16:27.177Z,21.18
2022-08-26T04:18:54.612Z,21.18
2022-08-26T04:21:21.170Z,21.17
2022-08-26T04:23:48.135Z,21.17
2022-08-26T04:26:16.802Z,21.16
2022-08-26T04:28:43.454Z,21.17
2022-08-26T04:31:11.337Z,21.16
2022-08-26T04:33:41.686Z,21.14
2022-08-26T04:36:09.114Z,21.13
2022-08-26T04:38:35.971Z,21.12
2022-08-26T04:41:03.115Z,21.13
2022-08-26T04:43:33.598Z,21.11
2022-08-26T04:46:03.097Z,21.12
2022-08-26T04:48:31.046Z,21.14
2022-08-26T04:50:57.899Z,21.16
2022-08-26T04:53:25.706Z,21.20
2022-08-26T04:55:52.551Z,21.22
2022-08-26T04:58:23.932Z,21.26
2022-08-26T05:00:55.121Z,21.34
2022-08-26T05:03:22.625Z,21.40
2022-08-26T05:05:51.121Z,21.47
2022-08-26T05:08:20.915Z,21.52
2022-08-26T05:10:51.864Z,21.56
2022-08-26T05:13:20.561Z,21.61
2022-08-26T05:15:48.227Z,21.60
2022-08-26T05:18:19.896Z,21.57
2022-08-26T05:20:48.856Z,21.59
2022-08-26T05:23:16.279Z,21.62
2022-08-26T05:25:45.489Z,21.59
2022-08-26T05:28:13.399Z,21.61
2022-08-26T05:30:40.481Z,21.67
2022-08-26T05:33:08.771Z,21.74
2022-08-26T05:35:38.015Z,21.79
2022-08-26T05:38:12.252Z,21.84
2022-08-26T05:40:45.793Z,21.93
2022-08-26T05:43:13.383Z,22.05
2022-08-26T05:45:46.273Z,22.16
2022-08-26T05:48:13.966Z,22.24
2022-08-26T05:50:43.367Z,22.33
2022-08-26T05:53:11.883Z,22.41
2022-08-26T05:55:42.588Z,22.50
2022-08-26T05:58:09.615Z,22.57
2022-08-26T06:00:36.231Z,22.66
2022-08-26T06:03:03.117Z,22.69
2022-08-26T06:05:29.820Z,22.72
2022-08-26T06:07:57.931Z,22.78
2022-08-26T06:10:32.921Z,22.87
2022-08-26T06:13:04.402Z,22.96
2022-08-26T06:15:42.024Z,23.04
2022-08-26T06:18:09.726Z,23.08
2022-08-26T06:20:36.930Z,23.15
2022-08-26T06:23:05.049Z,23.20
2022-08-26T06:25:31.647Z,23.25
2022-08-26T06:27:58.133Z,23.33
2022-08-26T06:30:24.836Z,23.43
2022-08-26T06:32:52.240Z,23.53
2022-08-26T06:35:19.907Z,23.63
2022-08-26T06:37:47.627Z,23.75
2022-08-26T06:40:15.615Z,23.86
2022-08-26T06:42:42.238Z,23.97
2022-08-26T06:45:10.299Z,24.07
2022-08-26T06:47:37.851Z,24.18
2022-08-26T06:50:05.026Z,24.28
2022-08-26T06:52:32.045Z,24.35
2022-08-26T06:54:58.656Z,24.40
2022-08-26T06:57:26.606Z,24.49
2022-08-26T06:59:53.296Z,24.55
2022-08-26T07:02:19.920Z,24.60
2022-08-26T07:04:47.772Z,24.69
2022-08-26T07:07:15.073Z,24.77
2022-08-26T07:09:41.635Z,24.86
2022-08-26T07:12:08.340Z,24.95
2022-08-26T07:14:37.232Z,25.04
2022-08-26T07:17:03.889Z,25.14
2022-08-26T07:19:31.775Z,25.20
2022-08-26T07:21:59.510Z,25.26
2022-08-26T07:24:28.476Z,25.35
2022-08-26T07:26:59.839Z,25.44
2022-08-26T07:29:26.410Z,25.52
2022-08-26T07:31:55.063Z,25.58
2022-08-26T07:34:23.663Z,25.62
2022-08-26T07:36:50.214Z,25.67
2022-08-26T07:39:17.007Z,25.78
2022-08-26T07:41:43.675Z,25.86
2022-08-26T07:44:10.281Z,25.89
2022-08-26T07:46:36.904Z,25.94
2022-08-26T07:49:05.287Z,26.01
2022-08-26T07:51:32.225Z,26.06
2022-08-26T07:53:59.570Z,26.10
2022-08-26T07:56:26.551Z,26.14
2022-08-26T07:58:53.702Z,26.20
2022-08-26T08:01:21.594Z,26.27
2022-08-26T08:03:50.542Z,26.35
2022-08-26T08:06:19.217Z,26.42
2022-08-26T08:08:46.147Z,26.50
2022-08-26T08:11:14.320Z,26.55
2022-08-26T08:13:41.277Z,26.61
2022-08-26T08:16:07.978Z,26.63
2022-08-26T08:18:39.651Z,26.69
2022-08-26T08:21:23.889Z,26.78
2022-08-26T08:23:53.320Z,26.87
2022-08-26T08:26:20.347Z,26.95
2022-08-26T08:28:47.778Z,27.01
2022-08-26T08:31:38.533Z,27.05
2022-08-26T08:34:06.635Z,27.11
2022-08-26T08:36:35.974Z,27.17
2022-08-26T08:39:07.208Z,27.23
2022-08-26T08:41:53.557Z,27.30
2022-08-26T08:46:53.874Z,27.43
2022-08-26T08:49:21.711Z,27.49
2022-08-26T08:51:54.359Z,27.50
2022-08-26T08:54:23.841Z,27.54
2022-08-26T08:56:52.999Z,27.59
2022-08-26T08:59:21.910Z,27.63
2022-08-26T09:02:00.182Z,27.65
2022-08-26T09:04:46.856Z,27.71
2022-08-26T09:07:17.876Z,27.76
2022-08-26T09:09:50.232Z,27.84
2022-08-26T09:12:29.486Z,27.95
2022-08-26T09:15:01.932Z,28.07
2022-08-26T09:17:39.930Z,28.14
2022-08-26T09:20:16.457Z,28.21
2022-08-26T09:22:44.296Z,28.21
2022-08-26T09:25:14.667Z,28.20
2022-08-26T09:27:44.154Z,28.26
2022-08-26T09:30:14.841Z,28.30
2022-08-26T09:32:42.404Z,28.37
2022-08-26T09:35:23.167Z,28.44
2022-08-26T09:40:29.255Z,28.58
2022-08-26T09:43:14.751Z,28.63
2022-08-26T09:45:50.266Z,28.61
2022-08-26T09:48:27.148Z,28.61
2022-08-26T09:50:56.721Z,28.64
2022-08-26T09:53:28.517Z,28.61
2022-08-26T09:58:50.587Z,28.60
2022-08-26T10:01:30.185Z,28.63
2022-08-26T10:04:06.347Z,28.66
2022-08-26T10:06:38.180Z,28.73
2022-08-26T10:09:09.872Z,28.80
2022-08-26T10:11:42.914Z,28.87
2022-08-26T10:14:18.791Z,28.93
2022-08-26T10:16:50.609Z,28.98
2022-08-26T10:19:23.287Z,29.08
2022-08-26T10:22:00.180Z,29.26
2022-08-26T10:24:31.863Z,29.47
2022-08-26T10:27:05.847Z,29.60
2022-08-26T10:29:39.739Z,29.67
2022-08-26T10:32:13.759Z,29.84
2022-08-26T10:34:40.652Z,29.91
2022-08-26T10:37:16.098Z,30.02
2022-08-26T10:39:53.088Z,30.08
2022-08-26T10:42:30.306Z,30.00
2022-08-26T10:45:05.768Z,29.81
2022-08-26T10:47:41.472Z,29.49
2022-08-26T10:50:08.898Z,29.13
2022-08-26T10:52:52.406Z,28.83
2022-08-26T10:55:22.775Z,28.55
2022-08-26T10:57:57.456Z,28.30
2022-08-26T11:00:31.593Z,28.10
2022-08-26T11:03:05.542Z,27.84
2022-08-26T11:05:36.115Z,27.56
2022-08-26T11:08:28.485Z,27.31
2022-08-26T11:10:59.007Z,27.12
2022-08-26T11:13:59.432Z,26.86
2022-08-26T11:16:42.878Z,26.52
2022-08-26T11:19:12.423Z,26.31
2022-08-26T11:22:04.294Z,26.20
2022-08-26T11:24:45.785Z,26.07
2022-08-26T11:28:03.169Z,25.84
2022-08-26T11:30:57.684Z,25.57
2022-08-26T11:33:56.969Z,25.43
2022-08-26T11:36:58.320Z,25.29
2022-08-26T11:39:28.658Z,25.12
2022-08-26T11:41:59.359Z,24.89
2022-08-26T11:44:29.369Z,24.64
2022-08-26T11:46:58.817Z,24.45
2022-08-26T11:49:28.235Z,24.25
2022-08-26T11:52:08.841Z,24.12
2022-08-26T11:54:35.924Z,24.00
2022-08-26T11:57:09.248Z,23.93
2022-08-26T11:59:40.326Z,23.82
2022-08-26T12:02:15.571Z,23.76
2022-08-26T12:04:47.384Z,23.72
2022-08-26T12:07:14.335Z,23.71
2022-08-26T12:09:52.949Z,23.67
2022-08-26T12:12:25.271Z,23.66
2022-08-26T12:15:11.253Z,23.66
2022-08-26T12:17:38.722Z,23.59
2022-08-26T12:20:18.176Z,23.43
2022-08-26T12:22:48.269Z,23.30
2022-08-26T12:25:23.277Z,23.23
2022-08-26T12:27:53.699Z,23.16
2022-08-26T12:30:24.011Z,23.08
2022-08-26T12:32:57.902Z,22.96
2022-08-26T12:35:27.048Z,22.81
2022-08-26T12:37:55.120Z,22.69
2022-08-26T12:40:27.859Z,22.52
2022-08-26T12:42:55.135Z,22.42
2022-08-26T12:45:27.389Z,22.37
2022-08-26T12:47:55.898Z,22.37
2022-08-26T12:50:26.717Z,22.39
2022-08-26T12:52:59.577Z,22.37
2022-08-26T12:55:36.302Z,22.34
2022-08-26T12:58:12.140Z,22.29
2022-08-26T13:00:41.058Z,22.23
2022-08-26T13:03:37.273Z,22.23
2022-08-26T13:06:15.681Z,22.27
2022-08-26T13:08:52.654Z,22.31
2022-08-26T13:11:27.412Z,22.35
2022-08-26T13:13:57.866Z,22.36
2022-08-26T13:16:25.222Z,22.39
2022-08-26T13:18:55.406Z,22.45
2022-08-26T13:21:24.904Z,22.50
2022-08-26T13:23:53.943Z,22.54
2022-08-26T13:26:21.269Z,22.53
2022-08-26T13:29:01.743Z,22.50
2022-08-26T13:31:32.409Z,22.44
2022-08-26T13:34:02.661Z,22.39
2022-08-26T13:36:30.032Z,22.37
2022-08-26T13:38:58.293Z,22.36
2022-08-26T13:41:29.460Z,22.37
2022-08-26T13:43:56.744Z,22.41
2022-08-26T13:46:24.997Z,22.44
2022-08-26T13:48:51.719Z,22.45
2022-08-26T13:51:18.602Z,22.48
2022-08-26T13:53:45.588Z,22.51
2022-08-26T13:56:13.779Z,22.53
2022-08-26T13:58:40.721Z,22.54
2022-08-26T14:01:08.183Z,22.55
2022-08-26T14:03:35.229Z,22.57
2022-08-26T14:06:02.144Z,22.59
2022-08-26T14:08:30.034Z,22.60
2022-08-26T14:10:56.706Z,22.59
2022-08-26T14:13:24.885Z,22.61
2022-08-26T14:15:52.838Z,22.60
2022-08-26T14:18:24.638Z,22.60
2022-08-26T14:20:53.175Z,22.60
2022-08-26T14:23:19.926Z,22.59
2022-08-26T14:25:46.646Z,22.60
2022-08-26T14:28:13.374Z,22.60
2022-08-26T14:30:43.645Z,22.61
2022-08-26T14:33:12.175Z,22.60
2022-08-26T14:35:39.598Z,22.59
2022-08-26T14:45:16.855Z,22.48
2022-08-26T14:47:45.678Z,22.47
2022-08-26T14:50:12.790Z,22.45
2022-08-26T14:52:40.042Z,22.43
2022-08-26T14:55:07.456Z,22.34
2022-08-26T14:57:34.150Z,22.26
2022-08-26T15:00:02.482Z,22.18
2022-08-26T15:02:33.507Z,22.14
2022-08-26T15:05:02.706Z,22.12
2022-08-26T15:07:29.611Z,22.14
2022-08-26T15:09:56.414Z,22.15
2022-08-26T15:12:23.215Z,22.17
2022-08-26T15:14:49.931Z,22.20
2022-08-26T15:17:16.740Z,22.18
2022-08-26T15:19:43.562Z,22.15
2022-08-26T15:22:11.726Z,22.13
2022-08-26T15:24:38.414Z,22.09
2022-08-26T15:27:05.129Z,22.07
2022-08-26T15:29:31.840Z,22.03
2022-08-26T15:32:03.522Z,22.01
2022-08-26T15:34:30.224Z,22.01
2022-08-26T15:36:56.912Z,22.01
2022-08-26T15:39:24.965Z,21.99
2022-08-26T15:41:51.657Z,21.98
2022-08-26T15:44:18.304Z,21.96
2022-08-26T15:46:47.047Z,21.94
2022-08-26T15:49:17.660Z,21.94
2022-08-26T15:51:46.650Z,21.96
2022-08-26T15:54:14.361Z,21.96
2022-08-26T15:56:43.426Z,21.98
2022-08-26T15:59:11.153Z,21.99
2022-08-26T16:01:38.041Z,22.00
2022-08-26T16:04:05.824Z,22.00
2022-08-26T16:06:34.817Z,22.02
2022-08-26T16:09:01.678Z,22.03
2022-08-26T16:11:28.905Z,22.03
2022-08-26T16:13:57.590Z,22.04
2022-08-26T16:16:24.615Z,22.06
2022-08-26T16:18:51.405Z,22.08
2022-08-26T16:21:21.862Z,22.09
2022-08-26T16:23:49.211Z,22.07
2022-08-26T16:26:22.585Z,22.08
2022-08-26T16:28:49.226Z,22.07
2022-08-26T16:31:18.184Z,22.09
2022-08-26T16:33:44.889Z,22.12
2022-08-26T16:36:12.180Z,22.14
2022-08-26T16:38:41.317Z,22.18
2022-08-26T16:41:08.933Z,22.20
2022-08-26T16:43:36.006Z,22.22
2022-08-26T16:46:05.965Z,22.24
2022-08-26T16:48:34.386Z,22.24
2022-08-26T16:51:01.108Z,22.23
2022-08-26T16:53:27.961Z,22.23
2022-08-26T16:55:54.728Z,22.21
2022-08-26T16:58:22.341Z,22.19
2022-08-26T17:00:49.894Z,22.16
2022-08-26T17:03:18.086Z,22.15
2022-08-26T17:05:46.159Z,22.15
2022-08-26T17:08:21.819Z,22.15
2022-08-26T17:10:55.742Z,22.10
2022-08-26T17:13:34.906Z,22.07
2022-08-26T17:16:04.347Z,22.06
2022-08-26T17:18:31.387Z,22.07
2022-08-26T17:21:02.669Z,22.07
2022-08-26T17:23:29.389Z,22.07
2022-08-26T17:25:56.292Z,22.10
2022-08-26T17:28:23.073Z,22.10
2022-08-26T17:30:49.705Z,22.11
2022-08-26T17:33:21.959Z,22.12
2022-08-26T17:35:51.286Z,22.12
2022-08-26T17:38:19.728Z,22.12
2022-08-26T17:40:46.360Z,22.11
2022-08-26T17:43:13.008Z,22.10
2022-08-26T17:45:40.845Z,22.10
2022-08-26T17:48:08.021Z,22.10
2022-08-26T17:50:35.186Z,22.10
2022-08-26T17:53:01.898Z,22.09
2022-08-26T17:55:29.924Z,22.07
2022-08-26T17:57:57.218Z,22.05
2022-08-26T18:00:25.669Z,22.03
2022-08-26T18:02:52.462Z,22.01
2022-08-26T18:05:19.284Z,21.98
2022-08-26T18:07:47.175Z,21.97
2022-08-26T18:10:16.209Z,21.95
2022-08-26T18:12:44.350Z,21.95
2022-08-26T18:15:13.608Z,21.93
2022-08-26T18:17:40.587Z,21.93
2022-08-26T18:20:09.652Z,21.92
2022-08-26T18:22:36.500Z,21.91
2022-08-26T18:25:03.650Z,21.88
2022-08-26T18:27:30.307Z,21.85
2022-08-26T18:29:58.344Z,21.81
2022-08-26T18:32:24.918Z,21.80
2022-08-26T18:34:51.568Z,21.78
2022-08-26T18:37:18.568Z,21.77
2022-08-26T18:39:45.267Z,21.77
2022-08-26T18:42:11.925Z,21.74
2022-08-26T18:44:38.762Z,21.71
2022-08-26T18:47:07.010Z,21.70
2022-08-26T18:49:34.457Z,21.67
2022-08-26T18:52:01.246Z,21.63
2022-08-26T18:54:27.946Z,21.59
2022-08-26T18:56:54.640Z,21.55
2022-08-26T18:59:29.567Z,21.53
2022-08-26T19:01:57.958Z,21.50
2022-08-26T19:04:26.624Z,21.48
2022-08-26T19:06:53.587Z,21.47
2022-08-26T19:09:20.869Z,21.46
2022-08-26T19:11:49.661Z,21.42
2022-08-26T19:14:18.288Z,21.40
2022-08-26T19:16:47.155Z,21.38
2022-08-26T19:19:14.617Z,21.34
2022-08-26T19:21:43.380Z,21.32
2022-08-26T19:24:13.485Z,21.30
2022-08-26T19:26:40.176Z,21.28
2022-08-26T19:29:07.021Z,21.29
2022-08-26T19:31:33.899Z,21.29
2022-08-26T19:34:00.668Z,21.30
2022-08-26T19:36:28.235Z,21.31
2022-08-26T19:38:56.341Z,21.32
2022-08-26T19:41:36.680Z,21.32
2022-08-26T19:44:07.154Z,21.33
2022-08-26T19:46:33.913Z,21.33
2022-08-26T19:49:00.625Z,21.33
2022-08-26T19:51:32.004Z,21.35
2022-08-26T19:54:01.049Z,21.36
2022-08-26T19:56:28.357Z,21.36
2022-08-26T19:58:56.017Z,21.36
2022-08-26T20:01:23.208Z,21.36
2022-08-26T20:03:50.133Z,21.36
2022-08-26T20:06:17.141Z,21.37
2022-08-26T20:08:44.283Z,21.37
2022-08-26T20:11:14.397Z,21.38
2022-08-26T20:13:41.733Z,21.38
2022-08-26T20:16:08.460Z,21.40
2022-08-26T20:18:35.130Z,21.40
2022-08-26T20:21:01.918Z,21.40
2022-08-26T20:23:28.587Z,21.42
2022-08-26T20:25:55.569Z,21.42
2022-08-26T20:28:23.577Z,21.42
2022-08-26T20:30:50.450Z,21.42
2022-08-26T20:33:17.071Z,21.41
2022-08-26T20:35:43.826Z,21.40
2022-08-26T20:38:10.752Z,21.40
2022-08-26T20:40:37.648Z,21.40
2022-08-26T20:43:04.423Z,21.40
2022-08-26T20:45:32.587Z,21.40
2022-08-26T20:47:59.296Z,21.40
2022-08-26T20:50:26.335Z,21.39
2022-08-26T20:52:53.084Z,21.39
2022-08-26T20:55:20.368Z,21.38
2022-08-26T20:57:48.150Z,21.36
2022-08-26T21:00:15.393Z,21.36
2022-08-26T21:02:45.686Z,21.36
2022-08-26T21:05:12.452Z,21.35
2022-08-26T21:07:39.157Z,21.34
2022-08-26T21:10:06.307Z,21.32
2022-08-26T21:12:32.934Z,21.28
2022-08-26T21:14:59.611Z,21.27
2022-08-26T21:17:26.532Z,21.25
2022-08-26T21:19:54.595Z,21.24
2022-08-26T21:22:21.587Z,21.22
2022-08-26T21:24:48.237Z,21.22
2022-08-26T21:27:17.682Z,21.20
2022-08-26T21:29:53.262Z,21.21
2022-08-26T21:32:20.168Z,21.20
2022-08-26T21:34:46.927Z,21.18
2022-08-26T21:37:16.584Z,21.15
2022-08-26T21:39:43.807Z,21.14
2022-08-26T21:42:10.671Z,21.12
2022-08-26T21:44:37.471Z,21.10
2022-08-26T21:47:04.512Z,21.10
2022-08-26T21:49:31.414Z,21.10
2022-08-26T21:51:58.442Z,21.10
2022-08-26T21:54:26.569Z,21.10
2022-08-26T21:56:53.298Z,21.11
2022-08-26T21:59:20.018Z,21.10
2022-08-26T22:01:47.409Z,21.11
2022-08-26T22:04:14.302Z,21.12
2022-08-26T22:06:43.821Z,21.11
2022-08-26T22:09:12.214Z,21.11
2022-08-26T22:11:41.075Z,21.10
2022-08-26T22:14:07.830Z,21.08
2022-08-26T22:16:34.689Z,21.06
2022-08-26T22:19:01.589Z,21.04
2022-08-26T22:21:28.446Z,21.02
2022-08-26T22:23:57.912Z,21.00
2022-08-26T22:26:28.538Z,21.01
2022-08-26T22:28:59.395Z,21.02
2022-08-26T22:31:28.010Z,21.01
2022-08-26T22:34:07.105Z,21.00
2022-08-26T22:36:33.884Z,21.00
2022-08-26T22:39:01.503Z,20.98
2022-08-26T22:41:28.305Z,20.97
2022-08-26T22:43:56.513Z,20.97
2022-08-26T22:46:25.528Z,20.93
2022-08-26T22:48:54.142Z,20.91
2022-08-26T22:51:21.570Z,20.90
2022-08-26T22:53:48.362Z,20.87
2022-08-26T22:56:15.507Z,20.84
2022-08-26T22:58:42.216Z,20.82
2022-08-26T23:01:10.325Z,20.82
2022-08-26T23:03:37.323Z,20.82
2022-08-26T23:06:05.426Z,20.81
2022-08-26T23:08:32.191Z,20.81
2022-08-26T23:10:58.883Z,20.77
2022-08-26T23:13:25.780Z,20.76
2022-08-26T23:16:01.115Z,20.74
2022-08-26T23:18:29.298Z,20.71
2022-08-26T23:20:57.082Z,20.70
2022-08-26T23:23:24.891Z,20.68
2022-08-26T23:25:51.579Z,20.68
2022-08-26T23:28:18.277Z,20.65
2022-08-26T23:30:44.893Z,20.64
2022-08-26T23:33:11.479Z,20.62
2022-08-26T23:35:39.554Z,20.63
2022-08-26T23:38:08.346Z,20.65
2022-08-26T23:40:37.750Z,20.64
2022-08-26T23:43:06.615Z,20.63
2022-08-26T23:45:34.381Z,20.62
2022-08-26T23:48:01.126Z,20.58
2022-08-26T23:50:29.923Z,20.58
2022-08-26T23:52:58.260Z,20.56
2022-08-26T23:55:25.001Z,20.58
2022-08-26T23:57:51.767Z,20.60
